
Distance (Route):
Temperature : -5.4°C
Humidity : 75.9%
Pressure : 0hPa| Receiver | Date | Latitude | Longitude | Direction | Speed | Altitude | Climb | Temperature | Humidity | Pressure | Voltage | Killtimer | Uptime | BKT | XDATA |
|---|---|---|---|---|---|---|---|---|---|---|---|---|---|---|---|
| LZ4TU-5 | 2026-09-01 01:02:09 | 44.85379 | 21.38741 | 72° | 47km/h | 5166m | -16.7m/s | -5.4°C | 75.9% | 0hPa | 5.4V | 00:00:00 | 00:00:00 | 00:00:00 | |
| LZ4TU-5 | 2026-09-01 01:02:04 | 44.85362 | 21.38663 | 71° | 49km/h | 5246m | -16.8m/s | -5.7°C | 62.9% | 0hPa | 5.4V | 00:00:00 | 00:00:00 | 00:00:00 | |
| LZ4TU-5 | 2026-09-01 01:00:14 | 44.85016 | 21.36603 | 92° | 68km/h | 7234m | -18.9m/s | -17.7°C | 24.1% | 0hPa | 5.4V | 00:00:00 | 00:00:00 | 00:00:00 | |
| LZ4TU-5 | 2026-09-01 01:00:09 | 44.85022 | 21.36486 | 93° | 66km/h | 7323m | -18.9m/s | -18.6°C | 25.1% | 0hPa | 5.4V | 00:00:00 | 00:00:00 | 00:00:00 | |
| LZ4TU-5 | 2026-09-01 00:58:33 | 44.85155 | 21.33630 | 97° | 99km/h | 9190m | -20.7m/s | -33.2°C | 23.0% | 0hPa | 5.4V | 00:00:00 | 00:00:00 | 00:00:00 | |
| LZ4TU-5 | 2026-09-01 00:58:28 | 44.85166 | 21.33458 | 95° | 97km/h | 9296m | -20.8m/s | -33.7°C | 20.6% | 0hPa | 5.4V | 00:00:00 | 00:00:00 | 00:00:00 | |
| LZ4TU-5 | 2026-09-01 00:56:33 | 44.85140 | 21.28473 | 89° | 135km/h | 11860m | -24.6m/s | -51.9°C | 24.5% | 0hPa | 5.4V | 00:00:00 | 00:00:00 | 00:00:00 | |
| LZ4TU-5 | 2026-09-01 00:56:28 | 44.85131 | 21.28232 | 88° | 133km/h | 11977m | -24.8m/s | -52.8°C | 24.0% | 0hPa | 5.4V | 00:00:00 | 00:00:00 | 00:00:00 | |
| LZ4TU-5 | 2026-09-01 00:54:00 | 44.84985 | 21.23433 | 80° | 57km/h | 16189m | -33.6m/s | -61.3°C | 1.5% | 0hPa | 5.4V | 00:00:00 | 00:00:00 | 00:00:00 | |
| LZ4TU-5 | 2026-09-01 00:53:56 | 44.84979 | 21.23358 | 83° | 60km/h | 16317m | -34.0m/s | -61.2°C | 1.7% | 0hPa | 5.4V | 00:00:00 | 00:00:00 | 00:00:00 | |
| LZ4TU-5 | 2026-09-01 00:53:52 | 44.84971 | 21.23284 | 86° | 55km/h | 16458m | -34.2m/s | -59.8°C | 1.6% | 0hPa | 5.4V | 00:00:00 | 00:00:00 | 00:00:00 | |
| LZ4TU-5 | 2026-09-01 00:53:40 | 44.84956 | 21.23130 | 47° | 20km/h | 16874m | -35.9m/s | -54.7°C | 69.5% | 0hPa | 5.4V | 00:00:00 | 00:00:00 | 00:00:00 | |
| LZ4TU-5 | 2026-09-01 00:51:49 | 44.84717 | 21.22538 | 298° | 7km/h | 21601m | -51.0m/s | -54.3°C | 0.8% | 0hPa | 5.4V | 00:00:00 | 00:00:00 | 00:00:00 | |
| LZ4TU-5 | 2026-09-01 00:51:45 | 44.84712 | 21.22549 | 356° | 7km/h | 21813m | -51.8m/s | -53.8°C | 0.7% | 0hPa | 5.4V | 00:00:00 | 00:00:00 | 00:00:00 | |
| LZ4TU-5 | 2026-09-01 00:49:23 | 44.84595 | 21.22437 | 91° | 22km/h | 31646m | -53.4m/s | -39.1°C | 2.7% | 0hPa | 5.4V | 00:00:00 | 00:00:00 | 00:00:00 | |
| LZ4TU-5 | 2026-09-01 00:49:18 | 44.84593 | 21.22395 | 94° | 26km/h | 31828m | -15.4m/s | -39.7°C | 0% | 0hPa | 5.4V | 00:00:00 | 00:00:00 | 00:00:00 | |
| OE3JTB-15 | 2026-09-01 00:48:23 | 44.84570 | 21.22101 | 254° | 15km/h | 31416m | 6.5m/s | -38.9°C | 0% | 0hPa | 5.4V | 00:00:00 | 00:00:00 | 00:00:00 | |
| OE3JTB-15 | 2026-09-01 00:46:23 | 44.84689 | 21.22157 | 60° | 15km/h | 30560m | 7.2m/s | -41.2°C | 0% | 0hPa | 5.4V | 00:00:00 | 00:00:00 | 00:00:00 | |
| LZ4TU-5 | 2026-09-01 00:46:18 | 44.84689 | 21.22147 | 98° | 16km/h | 30548m | 4.3m/s | -41.2°C | 7.5% | 0hPa | 5.4V | 00:00:00 | 00:00:00 | 00:00:00 | |
| OE3JTB-15 | 2026-09-01 00:45:54 | 44.84602 | 21.22143 | 4° | 16km/h | 30383m | 2.8m/s | -41.6°C | 0% | 0hPa | 5.4V | 00:00:00 | 00:00:00 | 00:00:00 | |
| OE3JTB-15 | 2026-09-01 00:45:23 | 44.84451 | 21.22234 | 324° | 18km/h | 30164m | 6.8m/s | -42.2°C | 0% | 0hPa | 5.4V | 00:00:00 | 00:00:00 | 00:00:00 | |
| OE3JTB-15 | 2026-09-01 00:44:09 | 44.84458 | 21.22525 | 79° | 18km/h | 29666m | 7.5m/s | -43.2°C | 0% | 0hPa | 5.5V | 00:00:00 | 00:00:00 | 00:00:00 | |
| LZ4TU-5 | 2026-09-01 00:42:19 | 44.84245 | 21.22413 | 296° | 26km/h | 28925m | 7.3m/s | -47.8°C | 10.4% | 0hPa | 5.5V | 00:00:00 | 00:00:00 | 00:00:00 | |
| LZ4TU-5 | 2026-09-01 00:42:14 | 44.84243 | 21.22444 | 0° | 0km/h | 28894m | 9.8m/s | -48.1°C | 10.2% | 0hPa | 5.5V | 00:00:00 | 00:00:00 | 00:00:00 | |
| LZ4TU-5 | 2026-09-01 00:40:16 | 44.84061 | 21.22407 | 335° | 11km/h | 28113m | 6.8m/s | -49.6°C | 11.6% | 0hPa | 5.5V | 00:00:00 | 00:00:00 | 00:00:00 | |
| LZ4TU-5 | 2026-09-01 00:40:12 | 44.84058 | 21.22404 | 7° | 13km/h | 28087m | 7.1m/s | -49.6°C | 11.9% | 0hPa | 5.5V | 00:00:00 | 00:00:00 | 00:00:00 | |
| OE3JTB-15 | 2026-09-01 00:39:50 | 44.83943 | 21.22448 | 351° | 11km/h | 27929m | 7.2m/s | -48.7°C | 0% | 0hPa | 5.5V | 00:00:00 | 00:00:00 | 00:00:00 | |
| OE3JTB-15 | 2026-09-01 00:39:17 | 44.83974 | 21.22543 | 166° | 24km/h | 27693m | 7.0m/s | -48.7°C | 0% | 0hPa | 5.5V | 00:00:00 | 00:00:00 | 00:00:00 | |
| OE3JTB-15 | 2026-09-01 00:38:29 | 44.84167 | 21.22557 | 173° | 13km/h | 27374m | 6.3m/s | -49.3°C | 0% | 0hPa | 5.5V | 00:00:00 | 00:00:00 | 00:00:00 | |
| LZ4TU-5 | 2026-09-01 00:38:19 | 44.84210 | 21.22538 | 158° | 18km/h | 27313m | 6.6m/s | -49.8°C | 11.1% | 0hPa | 5.5V | 00:00:00 | 00:00:00 | 00:00:00 | |
| LZ4TU-5 | 2026-09-01 00:38:15 | 44.84215 | 21.22532 | 0° | 0km/h | 27286m | 5.8m/s | -49.9°C | 10.8% | 0hPa | 5.5V | 00:00:00 | 00:00:00 | 00:00:00 | |
| OE3JTB-15 | 2026-09-01 00:37:59 | 44.84227 | 21.22522 | 155° | 16km/h | 27178m | 8.0m/s | -49.5°C | 0% | 0hPa | 5.5V | 00:00:00 | 00:00:00 | 00:00:00 | |
| OE3JTB-15 | 2026-09-01 00:37:31 | 44.84229 | 21.22476 | 38° | 24km/h | 26985m | 5.4m/s | -49.8°C | 0% | 0hPa | 5.5V | 00:00:00 | 00:00:00 | 00:00:00 | |
| LZ4TU-5 | 2026-09-01 00:36:24 | 44.84413 | 21.22416 | 161° | 38km/h | 26544m | 7.5m/s | -49.6°C | 11.2% | 0hPa | 5.6V | 00:00:00 | 00:00:00 | 00:00:00 | |
| LZ4TU-5 | 2026-09-01 00:36:20 | 44.84435 | 21.22412 | 145° | 13km/h | 26518m | 6.9m/s | -49.6°C | 11.7% | 0hPa | 5.6V | 00:00:00 | 00:00:00 | 00:00:00 | |
| OE3JTB-15 | 2026-09-01 00:36:12 | 44.84468 | 21.22346 | 152° | 20km/h | 26464m | 7.1m/s | -48.9°C | 0% | 0hPa | 5.6V | 00:00:00 | 00:00:00 | 00:00:00 | |
| OE3JTB-15 | 2026-09-01 00:35:38 | 44.84547 | 21.22198 | 174° | 18km/h | 26239m | 7.2m/s | -48.4°C | 0% | 0hPa | 5.6V | 00:00:00 | 00:00:00 | 00:00:00 | |
| LZ4TU-5 | 2026-09-01 00:34:31 | 44.84650 | 21.22117 | 217° | 9km/h | 25808m | 4.6m/s | -49.4°C | 10.5% | 0hPa | 5.6V | 00:00:00 | 00:00:00 | 00:00:00 | |
| LZ4TU-5 | 2026-09-01 00:34:25 | 44.84647 | 21.22122 | 34° | 16km/h | 25779m | 4.5m/s | -49.4°C | 0% | 0hPa | 5.6V | 00:00:00 | 00:00:00 | 00:00:00 | |
| LZ4TU-5 | 2026-09-01 00:32:37 | 44.84581 | 21.22266 | 0° | 0km/h | 25116m | 5.6m/s | -52.2°C | 10.7% | 0hPa | 5.6V | 00:00:00 | 00:00:00 | 00:00:00 | |
| LZ4TU-5 | 2026-09-01 00:32:33 | 44.84578 | 21.22279 | 268° | 15km/h | 25091m | 5.9m/s | -52.4°C | 10.4% | 0hPa | 5.6V | 00:00:00 | 00:00:00 | 00:00:00 | |
| OE3JTB-15 | 2026-09-01 00:30:43 | 44.84419 | 21.22165 | 215° | 13km/h | 24379m | 7.7m/s | -53.5°C | 0% | 0hPa | 5.6V | 00:00:00 | 00:00:00 | 00:00:00 | |
| LZ4TU-5 | 2026-09-01 00:30:39 | 44.84421 | 21.22167 | 230° | 9km/h | 24373m | 5.6m/s | -54.2°C | 11.4% | 0hPa | 5.6V | 00:00:00 | 00:00:00 | 00:00:00 | |
| OE3JTB-15 | 2026-09-01 00:30:11 | 44.84440 | 21.22151 | 37° | 7km/h | 24169m | 5.7m/s | -53.1°C | 0% | 0hPa | 5.6V | 00:00:00 | 00:00:00 | 00:00:00 | |
| OE3JTB-15 | 2026-09-01 00:29:43 | 44.84386 | 21.22208 | 333° | 24km/h | 23999m | 6.0m/s | -53.5°C | 0% | 0hPa | 5.6V | 00:00:00 | 00:00:00 | 00:00:00 | |
| LZ4TU-5 | 2026-09-01 00:28:50 | 44.84196 | 21.22240 | 16° | 35km/h | 23694m | 4.1m/s | -53.9°C | 10.4% | 0hPa | 5.6V | 00:00:00 | 00:00:00 | 00:00:00 | |
| LZ4TU-5 | 2026-09-01 00:28:46 | 44.84179 | 21.22237 | 327° | 7km/h | 23669m | 5.4m/s | -53.8°C | 10.6% | 0hPa | 5.6V | 00:00:00 | 00:00:00 | 00:00:00 | |
| OE3JTB-15 | 2026-09-01 00:28:33 | 44.84089 | 21.22251 | 1° | 20km/h | 23577m | 6.8m/s | -52.9°C | 0% | 0hPa | 5.6V | 00:00:00 | 00:00:00 | 00:00:00 | |
| OE3JTB-15 | 2026-09-01 00:28:04 | 44.83975 | 21.22319 | 30° | 16km/h | 23411m | 4.9m/s | -53.1°C | 0% | 0hPa | 5.6V | 00:00:00 | 00:00:00 | 00:00:00 | |
| LZ4TU-5 | 2026-09-01 00:26:24 | 44.83893 | 21.22149 | 325° | 13km/h | 22798m | 6.3m/s | -54.3°C | 10.4% | 0hPa | 5.6V | 00:00:00 | 00:00:00 | 00:00:00 | |
| LZ4TU-5 | 2026-09-01 00:26:19 | 44.83883 | 21.22136 | 48° | 26km/h | 22765m | 5.1m/s | -54.4°C | 10.7% | 0hPa | 5.6V | 00:00:00 | 00:00:00 | 00:00:00 | |
| LZ4TU-5 | 2026-09-01 00:24:30 | 44.83586 | 21.22142 | 5° | 15km/h | 22092m | 5.7m/s | -54.5°C | 9.9% | 0hPa | 5.6V | 00:00:00 | 00:00:00 | 00:00:00 | |
| OE3JTB-15 | 2026-09-01 00:24:22 | 44.83583 | 21.22152 | 17° | 15km/h | 22035m | 5.6m/s | -53.7°C | 0% | 0hPa | 5.6V | 00:00:00 | 00:00:00 | 00:00:00 | |
| OE3JTB-15 | 2026-09-01 00:23:52 | 44.83477 | 21.22149 | 304° | 11km/h | 21862m | 5.5m/s | -54.1°C | 0% | 0hPa | 5.6V | 00:00:00 | 00:00:00 | 00:00:00 | |
| OE3JTB-15 | 2026-09-01 00:23:22 | 44.83433 | 21.22230 | 280° | 18km/h | 21680m | 7.5m/s | -54.4°C | 0% | 0hPa | 5.6V | 00:00:00 | 00:00:00 | 00:00:00 | |
| LZ4TU-5 | 2026-09-01 00:22:44 | 44.83524 | 21.22432 | 205° | 18km/h | 21461m | 5.4m/s | -55.3°C | 10.1% | 0hPa | 5.6V | 00:00:00 | 00:00:00 | 00:00:00 | |
| OE3JTB-15 | 2026-09-01 00:22:40 | 44.83536 | 21.22443 | 211° | 7km/h | 21436m | 6.1m/s | -54.6°C | 0% | 0hPa | 5.6V | 00:00:00 | 00:00:00 | 00:00:00 | |
| OE3JTB-15 | 2026-09-01 00:22:10 | 44.83545 | 21.22486 | 320° | 13km/h | 21267m | 5.5m/s | -54.8°C | 0% | 0hPa | 5.6V | 00:00:00 | 00:00:00 | 00:00:00 | |
| OE3JTB-15 | 2026-09-01 00:21:39 | 44.83495 | 21.22395 | 130° | 11km/h | 21094m | 5.5m/s | -55.2°C | 0% | 0hPa | 5.7V | 00:00:00 | 00:00:00 | 00:00:00 | |
| LZ4TU-5 | 2026-09-01 00:20:53 | 44.83455 | 21.22265 | 148° | 13km/h | 20831m | 6.4m/s | -56.5°C | 11.3% | 0hPa | 5.7V | 00:00:00 | 00:00:00 | 00:00:00 | |
| LZ4TU-5 | 2026-09-01 00:20:48 | 44.83465 | 21.22262 | 0° | 0km/h | 20803m | 5.4m/s | -56.4°C | 11.2% | 0hPa | 5.7V | 00:00:00 | 00:00:00 | 00:00:00 | |
| LZ4TU-5 | 2026-09-01 00:19:03 | 44.83377 | 21.21760 | 348° | 16km/h | 20182m | 5.2m/s | -55.5°C | 9.6% | 0hPa | 5.7V | 00:00:00 | 00:00:00 | 00:00:00 | |
| LZ4TU-5 | 2026-09-01 00:18:59 | 44.83369 | 21.21745 | 97° | 16km/h | 20158m | 6.6m/s | -55.5°C | 9.5% | 0hPa | 5.7V | 00:00:00 | 00:00:00 | 00:00:00 | |
| OE3JTB-15 | 2026-09-01 00:18:55 | 44.83368 | 21.21731 | 336° | 15km/h | 20121m | 5.6m/s | -54.8°C | 0% | 0hPa | 5.7V | 00:00:00 | 00:00:00 | 00:00:00 | |
| OE3JTB-15 | 2026-09-01 00:18:23 | 44.83329 | 21.21636 | 69° | 18km/h | 19938m | 4.9m/s | -55.3°C | 0% | 0hPa | 5.7V | 00:00:00 | 00:00:00 | 00:00:00 | |
| GYPAP8-17 | 2026-09-01 00:18:12 | 44.83308 | 21.21602 | 75° | 31km/h | 19885m | 5.6m/s | -56.3°C | 9.6% | 0hPa | 5.7V | 00:00:00 | 00:00:00 | 00:00:00 | |
| OE3JTB-15 | 2026-09-01 00:17:54 | 44.83264 | 21.21495 | 62° | 31km/h | 19784m | 5.4m/s | -55.8°C | 0% | 0hPa | 5.7V | 00:00:00 | 00:00:00 | 00:00:00 | |
| OE3JTB-15 | 2026-09-01 00:17:25 | 44.83123 | 21.21233 | 54° | 24km/h | 19622m | 4.7m/s | -55.3°C | 0% | 0hPa | 5.7V | 00:00:00 | 00:00:00 | 00:00:00 | |
| LZ4TU-5 | 2026-09-01 00:17:02 | 44.83013 | 21.21132 | 43° | 18km/h | 19493m | 5.6m/s | -56.5°C | 10.7% | 0hPa | 5.7V | 00:00:00 | 00:00:00 | 00:00:00 | |
| LZ4TU-5 | 2026-09-01 00:16:58 | 44.82998 | 21.21115 | 36° | 11km/h | 19470m | 6.3m/s | -56.5°C | 10.7% | 0hPa | 5.7V | 00:00:00 | 00:00:00 | 00:00:00 | |
| OE3JTB-15 | 2026-09-01 00:16:56 | 44.82995 | 21.21112 | 33° | 24km/h | 19461m | 3.9m/s | -55.7°C | 0% | 0hPa | 5.7V | 00:00:00 | 00:00:00 | 00:00:00 | |
| OE3JTB-15 | 2026-09-01 00:16:27 | 44.82888 | 21.20940 | 61° | 22km/h | 19301m | 4.8m/s | -56.0°C | 0% | 0hPa | 5.7V | 00:00:00 | 00:00:00 | 00:00:00 | |
| OE3JTB-15 | 2026-09-01 00:15:58 | 44.82782 | 21.20784 | 55° | 26km/h | 19139m | 5.6m/s | -55.7°C | 0% | 0hPa | 5.7V | 00:00:00 | 00:00:00 | 00:00:00 | |
| OE3JTB-15 | 2026-09-01 00:15:29 | 44.82697 | 21.20571 | 42° | 16km/h | 18974m | 6.3m/s | -56.1°C | 0% | 0hPa | 5.7V | 00:00:00 | 00:00:00 | 00:00:00 | |
| LZ4TU-5 | 2026-09-01 00:15:13 | 44.82658 | 21.20503 | 86° | 20km/h | 18886m | 5.2m/s | -56.5°C | 10.9% | 0hPa | 5.7V | 00:00:00 | 00:00:00 | 00:00:00 | |
| LZ4TU-5 | 2026-09-01 00:15:08 | 44.82646 | 21.20480 | 360° | 16km/h | 18857m | 5.1m/s | -56.5°C | 11.0% | 0hPa | 5.7V | 00:00:00 | 00:00:00 | 00:00:00 | |
| OE3JTB-15 | 2026-09-01 00:15:00 | 44.82637 | 21.20482 | 86° | 9km/h | 18809m | 5.6m/s | -55.9°C | 0% | 0hPa | 5.7V | 00:00:00 | 00:00:00 | 00:00:00 | |
| OE3JTB-15 | 2026-09-01 00:14:30 | 44.82653 | 21.20468 | 122° | 11km/h | 18629m | 6.3m/s | -56.3°C | 0% | 0hPa | 5.7V | 00:00:00 | 00:00:00 | 00:00:00 | |
| OE3JTB-15 | 2026-09-01 00:14:01 | 44.82664 | 21.20349 | 108° | 22km/h | 18477m | 5.5m/s | -56.5°C | 0% | 0hPa | 5.7V | 00:00:00 | 00:00:00 | 00:00:00 | |
| LZ4TU-5 | 2026-09-01 00:13:21 | 44.82727 | 21.19991 | 115° | 27km/h | 18259m | 5.3m/s | -57.3°C | 11.3% | 0hPa | 0V | 00:00:00 | 00:00:00 | 00:00:00 | |
| LZ4TU-5 | 2026-09-01 00:13:17 | 44.82734 | 21.19959 | 80° | 24km/h | 18237m | 6.1m/s | -57.3°C | 11.3% | 0hPa | 0V | 00:00:00 | 00:00:00 | 00:00:00 | |
| LZ4TU-5 | 2026-09-01 00:11:33 | 44.82406 | 21.18910 | 43° | 29km/h | 17683m | 5.3m/s | -57.4°C | 11.4% | 0hPa | 0V | 00:00:00 | 00:00:00 | 00:00:00 | |
| LZ4TU-5 | 2026-09-01 00:11:28 | 44.82386 | 21.18855 | 64° | 42km/h | 17658m | 4.1m/s | -57.4°C | 11.5% | 0hPa | 0V | 00:00:00 | 00:00:00 | 00:00:00 | |
| LZ4TU-5 | 2026-09-01 00:09:46 | 44.81811 | 21.18237 | 37° | 27km/h | 17123m | 6.3m/s | -57.2°C | 12.9% | 0hPa | 0V | 00:00:00 | 00:00:00 | 00:00:00 | |
| LZ4TU-5 | 2026-09-01 00:09:41 | 44.81786 | 21.18208 | 46° | 22km/h | 17094m | 6.5m/s | -57.1°C | 12.8% | 0hPa | 0V | 00:00:00 | 00:00:00 | 00:00:00 | |
| LZ4TU-5 | 2026-09-01 00:07:49 | 44.81615 | 21.16843 | 92° | 69km/h | 16485m | 5.8m/s | -63.0°C | 15.1% | 0hPa | 0V | 00:00:00 | 00:00:00 | 00:00:00 | |
| LZ4TU-5 | 2026-09-01 00:07:44 | 44.81603 | 21.16721 | 81° | 64km/h | 16460m | 4.6m/s | -63.0°C | 15.1% | 0hPa | 0V | 00:00:00 | 00:00:00 | 00:00:00 | |
| LZ4TU-5 | 2026-09-01 00:06:01 | 44.81379 | 21.14599 | 102° | 66km/h | 15919m | 6.1m/s | -62.7°C | 16.9% | 0hPa | 0V | 00:00:00 | 00:00:00 | 00:00:00 | |
| LZ4TU-5 | 2026-09-01 00:05:56 | 44.81397 | 21.14479 | 101° | 66km/h | 15892m | 5.7m/s | -62.9°C | 17.2% | 0hPa | 0V | 00:00:00 | 00:00:00 | 00:00:00 | |
| LZ4TU-5 | 2026-09-01 00:04:13 | 44.81476 | 21.11654 | 89° | 66km/h | 15370m | 5.6m/s | -62.0°C | 18.9% | 0hPa | 0V | 00:00:00 | 00:00:00 | 00:00:00 | |
| LZ4TU-5 | 2026-09-01 00:04:10 | 44.81476 | 21.11558 | 84° | 71km/h | 15352m | 4.8m/s | -62.0°C | 18.8% | 0hPa | 0V | 00:00:00 | 00:00:00 | 00:00:00 | |
| LZ4TU-5 | 2026-09-01 00:02:45 | 44.81201 | 21.09617 | 92° | 55km/h | 14829m | 4.4m/s | -61.3°C | 20.2% | 0hPa | 0V | 00:00:00 | 00:00:00 | 00:00:00 | |
| LZ4TU-5 | 2026-09-01 00:02:35 | 44.81200 | 21.09536 | 90° | 51km/h | 14803m | 5.4m/s | -61.1°C | 20.1% | 0hPa | 0V | 00:00:00 | 00:00:00 | 00:00:00 | |
| LZ4TU-5 | 2026-09-01 00:00:52 | 44.81236 | 21.07490 | 85° | 78km/h | 14280m | 4.7m/s | -60.7°C | 22.0% | 0hPa | 0V | 00:00:00 | 00:00:00 | 00:00:00 | |
| LZ4TU-5 | 2026-09-01 00:00:45 | 44.81221 | 21.07352 | 82° | 86km/h | 14253m | 5.0m/s | -60.9°C | 22.1% | 0hPa | 0V | 00:00:00 | 00:00:00 | 00:00:00 | |
| LZ4TU-5 | 2026-08-31 23:59:03 | 44.80703 | 21.04708 | 78° | 80km/h | 13735m | 4.7m/s | -59.2°C | 24.4% | 0hPa | 0V | 00:00:00 | 00:00:00 | 00:00:00 | |
| LZ4TU-5 | 2026-08-31 23:58:58 | 44.80675 | 21.04573 | 74° | 80km/h | 13710m | 5.6m/s | -59.1°C | 24.4% | 0hPa | 0V | 00:00:00 | 00:00:00 | 00:00:00 | |
| LZ4TU-5 | 2026-08-31 23:57:16 | 44.80196 | 21.01387 | 85° | 97km/h | 13199m | 5.2m/s | -59.0°C | 27.7% | 0hPa | 0V | 00:00:00 | 00:00:00 | 00:00:00 | |
| LZ4TU-5 | 2026-08-31 23:57:11 | 44.80180 | 21.01206 | 83° | 111km/h | 13173m | 6.2m/s | -58.9°C | 28.0% | 0hPa | 0V | 00:00:00 | 00:00:00 | 00:00:00 | |
| LZ4TU-5 | 2026-08-31 23:55:31 | 44.79886 | 20.97103 | 85° | 117km/h | 12634m | 5.2m/s | -57.2°C | 30.1% | 0hPa | 0V | 00:00:00 | 00:00:00 | 00:00:00 | |
| LZ4TU-5 | 2026-08-31 23:55:25 | 44.79877 | 20.96890 | 91° | 122km/h | 12606m | 5.3m/s | -57.0°C | 30.2% | 0hPa | 0V | 00:00:00 | 00:00:00 | 00:00:00 | |
| LZ4TU-5 | 2026-08-31 23:53:40 | 44.79760 | 20.92237 | 91° | 131km/h | 12086m | 5.9m/s | -54.1°C | 31.7% | 0hPa | 0V | 00:00:00 | 00:00:00 | 00:00:00 | |
| LZ4TU-5 | 2026-08-31 23:52:52 | 44.79725 | 20.89988 | 90° | 120km/h | 11811m | 4.9m/s | -52.7°C | 36.6% | 0hPa | 0V | 00:00:00 | 00:00:00 | 00:00:00 | |
| LZ4TU-5 | 2026-08-31 23:51:52 | 44.79746 | 20.87042 | 95° | 131km/h | 11558m | 5.9m/s | -51.0°C | 37.3% | 0hPa | 0V | 00:00:00 | 00:00:00 | 00:00:00 | |
| LZ4TU-5 | 2026-08-31 23:51:47 | 44.79759 | 20.86792 | 92° | 142km/h | 11530m | 5.8m/s | -50.8°C | 37.2% | 0hPa | 0V | 00:00:00 | 00:00:00 | 00:00:00 | |
| LZ4TU-5 | 2026-08-31 23:50:53 | 44.79737 | 20.84124 | 90° | 144km/h | 11255m | 4.8m/s | -48.8°C | 35.6% | 0hPa | 0V | 00:00:00 | 00:00:00 | 00:00:00 | |
| LZ4TU-5 | 2026-08-31 23:50:48 | 44.79740 | 20.83881 | 95° | 135km/h | 11229m | 5.2m/s | -48.6°C | 35.3% | 0hPa | 0V | 00:00:00 | 00:00:00 | 00:00:00 | |
| LZ4TU-5 | 2026-08-31 23:49:48 | 44.79730 | 20.80961 | 94° | 135km/h | 10924m | 5.2m/s | -46.0°C | 30.7% | 0hPa | 0V | 00:00:00 | 00:00:00 | 00:00:00 | |
| LZ4TU-5 | 2026-08-31 23:49:45 | 44.79736 | 20.80783 | 94° | 124km/h | 10901m | 6.1m/s | -45.9°C | 30.5% | 0hPa | 0V | 00:00:00 | 00:00:00 | 00:00:00 | |
| LZ4TU-5 | 2026-08-31 23:48:59 | 44.79730 | 20.78696 | 89° | 139km/h | 10633m | 6.5m/s | -43.8°C | 27.0% | 0hPa | 0V | 00:00:00 | 00:00:00 | 00:00:00 | |
| LZ4TU-5 | 2026-08-31 23:48:54 | 44.79725 | 20.78458 | 88° | 119km/h | 10605m | 5.4m/s | -43.7°C | 27.1% | 0hPa | 0V | 00:00:00 | 00:00:00 | 00:00:00 | |
| LZ4TU-5 | 2026-08-31 23:47:48 | 44.79642 | 20.75513 | 83° | 133km/h | 10231m | 5.5m/s | -40.8°C | 24.5% | 0hPa | 0V | 00:00:00 | 00:00:00 | 00:00:00 | |
| LZ4TU-5 | 2026-08-31 23:46:03 | 44.79477 | 20.71060 | 88° | 115km/h | 9623m | 5.6m/s | -36.1°C | 22.3% | 0hPa | 0V | 00:00:00 | 00:00:00 | 00:00:00 | |
| LZ4TU-5 | 2026-08-31 23:45:58 | 44.79464 | 20.70862 | 86° | 119km/h | 9595m | 5.2m/s | -35.9°C | 21.8% | 0hPa | 0V | 00:00:00 | 00:00:00 | 00:00:00 | |
| LZ4TU-5 | 2026-08-31 23:44:13 | 44.79394 | 20.66570 | 88° | 104km/h | 9034m | 7.4m/s | -32.2°C | 17.7% | 0hPa | 0V | 00:00:00 | 00:00:00 | 00:00:00 | |
| LZ4TU-5 | 2026-08-31 23:44:09 | 44.79378 | 20.66408 | 89° | 120km/h | 9015m | 4.2m/s | -32.2°C | 18.9% | 0hPa | 0V | 00:00:00 | 00:00:00 | 00:00:00 | |
| LZ4TU-5 | 2026-08-31 23:42:30 | 44.79453 | 20.62999 | 89° | 111km/h | 8485m | 4.8m/s | -28.5°C | 25.1% | 0hPa | 0V | 00:00:00 | 00:00:00 | 00:00:00 | |
| LZ4TU-5 | 2026-08-31 23:41:04 | 44.79598 | 20.60151 | 97° | 78km/h | 8034m | 4.8m/s | -25.0°C | 27.3% | 0hPa | 0V | 00:00:00 | 00:00:00 | 00:00:00 | |
| LZ4TU-5 | 2026-08-31 23:40:59 | 44.79605 | 20.59991 | 87° | 108km/h | 8009m | 4.8m/s | -24.8°C | 27.7% | 0hPa | 0V | 00:00:00 | 00:00:00 | 00:00:00 | |
| LZ4TU-5 | 2026-08-31 23:39:33 | 44.79629 | 20.57411 | 86° | 82km/h | 7572m | 6.9m/s | -22.2°C | 33.6% | 0hPa | 0V | 00:00:00 | 00:00:00 | 00:00:00 | |
| LZ4TU-5 | 2026-08-31 23:39:29 | 44.79627 | 20.57286 | 94° | 84km/h | 7549m | 5.5m/s | -22.0°C | 33.4% | 0hPa | 0V | 00:00:00 | 00:00:00 | 00:00:00 | |
| LZ4TU-5 | 2026-08-31 23:37:42 | 44.79558 | 20.54574 | 77° | 73km/h | 6945m | 7.0m/s | -17.9°C | 20.4% | 0hPa | 0V | 00:00:00 | 00:00:00 | 00:00:00 | |
| LZ4TU-5 | 2026-08-31 23:37:37 | 44.79528 | 20.54464 | 76° | 64km/h | 6920m | 6.2m/s | -17.9°C | 24.0% | 0hPa | 0V | 00:00:00 | 00:00:00 | 00:00:00 | |
| LZ4TU-5 | 2026-08-31 23:36:19 | 44.79490 | 20.52653 | 106° | 47km/h | 6448m | 7.5m/s | -15.6°C | 26.2% | 0hPa | 0V | 00:00:00 | 00:00:00 | 00:00:00 | |
| LZ4TU-5 | 2026-08-31 23:36:15 | 44.79472 | 20.52579 | 67° | 75km/h | 6418m | 6.6m/s | -15.4°C | 25.4% | 0hPa | 0V | 00:00:00 | 00:00:00 | 00:00:00 | |
| LZ4TU-5 | 2026-08-31 23:34:58 | 44.79261 | 20.51047 | 63° | 53km/h | 5951m | 7.0m/s | -13.7°C | 30.5% | 0hPa | 0V | 00:00:00 | 00:00:00 | 00:00:00 | |
| LZ4TU-5 | 2026-08-31 23:34:54 | 44.79257 | 20.50992 | 90° | 33km/h | 5929m | 5.2m/s | -13.6°C | 0% | 0hPa | 0V | 00:00:00 | 00:00:00 | 00:00:00 | |
| LZ4TU-5 | 2026-08-31 23:34:48 | 44.79222 | 20.50880 | 79° | 71km/h | 5897m | 5.1m/s | -13.5°C | 28.7% | 0hPa | 0V | 00:00:00 | 00:00:00 | 00:00:00 | |
| LZ4TU-5 | 2026-08-31 23:33:32 | 44.78776 | 20.49568 | 53° | 51km/h | 5457m | 4.1m/s | -9.1°C | 82.1% | 0hPa | 0V | 00:00:00 | 00:00:00 | 00:00:00 | |
| LZ4TU-5 | 2026-08-31 23:33:27 | 44.78732 | 20.49509 | 37° | 57km/h | 5425m | 6.9m/s | -8.9°C | 81.5% | 0hPa | 0V | 00:00:00 | 00:00:00 | 00:00:00 |